Time;durP1;ratioP1;P1;durP2;ratioP2;P2;SDS_P1;SDS_P2;PMS_P1;PMS_P2;Temp;Humidity;BMP_temperature;BMP_pressure;BME280_temperature;BME280_humidity;BME280_pressure;Samples;Min_cycle;Max_cycle;Signal;HPM_P1;HPM_P2
2022/06/07 00:00:48;;;;;;;3.70;2.40;;;18.70;99.90;;;;;;5037114;28;20477;-70
2022/06/07 00:03:13;;;;;;;2.85;2.53;;;18.70;99.90;;;;;;5036857;28;20262;-71
2022/06/07 00:05:41;;;;;;;2.72;2.53;;;18.60;99.90;;;;;;5036956;28;20181;-72
2022/06/07 00:08:07;;;;;;;3.47;2.60;;;18.60;99.90;;;;;;5036909;28;20503;-71
2022/06/07 00:10:33;;;;;;;3.13;2.83;;;18.50;99.90;;;;;;5037000;28;20631;-71
2022/06/07 00:12:59;;;;;;;9.05;2.58;;;18.50;99.90;;;;;;5036576;28;20161;-72
2022/06/07 00:15:24;;;;;;;3.55;2.65;;;18.60;99.90;;;;;;5035091;28;20605;-70
2022/06/07 00:17:50;;;;;;;3.92;3.05;;;18.60;99.90;;;;;;5036695;28;20275;-71
2022/06/07 00:20:15;;;;;;;2.80;2.50;;;18.60;99.90;;;;;;5037064;28;20590;-72
2022/06/07 00:22:42;;;;;;;4.85;2.78;;;18.60;99.90;;;;;;5037154;28;20207;-72
2022/06/07 00:25:09;;;;;;;2.42;2.22;;;18.60;99.90;;;;;;5037650;28;20161;-71
2022/06/07 00:27:35;;;;;;;3.20;2.70;;;18.50;99.90;;;;;;5038071;28;20244;-71
2022/06/07 00:30:02;;;;;;;2.60;2.40;;;18.50;99.90;;;;;;5040324;28;20201;-72
2022/06/07 00:32:28;;;;;;;2.53;2.28;;;18.50;99.90;;;;;;5044481;28;20185;-72
2022/06/07 00:34:54;;;;;;;2.75;2.55;;;18.40;99.90;;;;;;5044568;28;20169;-71
2022/06/07 00:37:20;;;;;;;2.58;2.38;;;18.40;99.90;;;;;;5045828;28;20195;-73
2022/06/07 00:39:45;;;;;;;2.65;2.45;;;18.50;99.90;;;;;;5048095;28;20176;-72
2022/06/07 00:42:11;;;;;;;3.15;2.47;;;18.60;99.90;;;;;;5042891;28;20173;-71
2022/06/07 00:44:43;;;;;;;3.70;2.60;;;18.60;99.90;;;;;;5037122;28;20157;-70
2022/06/07 00:47:11;;;;;;;4.22;2.63;;;18.60;99.90;;;;;;5037545;28;20160;-71
2022/06/07 00:49:48;;;;;;;3.15;2.53;;;18.60;99.90;;;;;;5039352;28;20203;-70
2022/06/07 00:52:18;;;;;;;6.50;2.70;;;18.60;99.90;;;;;;5036038;28;20168;-70
2022/06/07 00:54:43;;;;;;;3.22;2.60;;;18.50;99.90;;;;;;5036609;28;20185;-71
2022/06/07 00:57:09;;;;;;;6.38;2.67;;;18.40;99.90;;;;;;5036154;28;20176;-71
2022/06/07 00:59:35;;;;;;;3.70;3.13;;;18.40;99.90;;;;;;5035341;28;20165;-71
2022/06/07 01:02:01;;;;;;;4.80;2.63;;;18.40;99.90;;;;;;5036554;28;20185;-72
2022/06/07 01:04:27;;;;;;;2.92;2.63;;;18.30;99.90;;;;;;5036145;28;20236;-70
2022/06/07 01:12:23;;;;;;;3.30;2.90;;;18.10;99.90;;;;;;5035716;28;20164;-71
2022/06/07 01:14:49;;;;;;;3.17;2.83;;;18.20;99.90;;;;;;5036156;28;20552;-71
2022/06/07 01:17:15;;;;;;;2.85;2.63;;;18.30;99.90;;;;;;5035955;28;20553;-71
2022/06/07 01:19:40;;;;;;;3.30;2.92;;;18.20;99.90;;;;;;5035592;28;20521;-71
2022/06/07 01:22:06;;;;;;;3.03;2.75;;;18.20;99.90;;;;;;5036621;28;20172;-71
2022/06/07 01:24:31;;;;;;;4.00;3.03;;;18.10;99.90;;;;;;5035175;28;20184;-71
2022/06/07 01:26:57;;;;;;;3.33;2.97;;;18.00;99.90;;;;;;5037003;28;20208;-72
2022/06/07 01:29:23;;;;;;;3.40;3.10;;;18.10;99.90;;;;;;5047150;28;20192;-72
2022/06/07 01:31:48;;;;;;;3.15;2.85;;;18.10;99.90;;;;;;5052264;28;20176;-72
2022/06/07 01:34:15;;;;;;;2.65;2.45;;;18.10;99.90;;;;;;5042734;28;20511;-71
2022/06/07 01:36:40;;;;;;;2.67;2.30;;;18.10;99.90;;;;;;5035948;28;20515;-70
2022/06/07 01:41:56;;;;;;;4.03;3.53;;;18.10;99.90;;;;;;5034800;28;20159;-71
2022/06/07 01:44:26;;;;;;;3.33;2.78;;;18.10;99.90;;;;;;5035575;28;20176;-71
2022/06/07 01:46:53;;;;;;;4.95;3.05;;;17.90;99.90;;;;;;5039523;28;20160;-71
2022/06/07 01:49:19;;;;;;;5.75;2.78;;;17.90;99.90;;;;;;5043842;28;20287;-70
2022/06/07 01:51:45;;;;;;;5.38;2.47;;;17.90;99.90;;;;;;5042888;28;20165;-71
2022/06/07 01:54:12;;;;;;;3.70;3.20;;;18.10;99.90;;;;;;5041677;28;20605;-70
2022/06/07 01:56:38;;;;;;;3.33;3.03;;;18.10;99.90;;;;;;5034963;28;20184;-71
2022/06/07 01:59:05;;;;;;;3.95;2.90;;;18.00;99.90;;;;;;5035573;28;20574;-71
2022/06/07 02:01:31;;;;;;;3.42;3.10;;;18.00;99.90;;;;;;5035086;28;20180;-71
2022/06/07 02:03:56;;;;;;;3.40;2.55;;;18.10;99.90;;;;;;5035124;28;20326;-71
2022/06/07 02:06:22;;;;;;;3.75;2.90;;;18.00;99.90;;;;;;5034864;28;20504;-71
2022/06/07 02:08:48;;;;;;;4.75;2.40;;;18.10;99.90;;;;;;5034913;28;20172;-71
2022/06/07 02:11:17;;;;;;;5.13;2.83;;;18.00;99.90;;;;;;5032728;28;20181;-70
2022/06/07 02:13:44;;;;;;;5.22;3.03;;;18.00;99.90;;;;;;5033679;28;20199;-71
2022/06/07 02:16:10;;;;;;;4.22;2.63;;;18.00;99.90;;;;;;5034502;28;20173;-71
2022/06/07 02:18:36;;;;;;;3.22;2.88;;;18.00;99.90;;;;;;5034313;28;20161;-70
2022/06/07 02:21:02;;;;;;;3.80;3.08;;;17.90;99.90;;;;;;5034676;28;20188;-71
2022/06/07 02:23:29;;;;;;;4.72;3.10;;;17.90;99.90;;;;;;5034576;28;20268;-71
2022/06/07 02:26:07;;;;;;;3.08;2.78;;;17.90;99.90;;;;;;5033951;28;20693;-72
2022/06/07 02:28:38;;;;;;;3.28;2.80;;;18.00;99.90;;;;;;5034878;28;20165;-71
2022/06/07 02:31:05;;;;;;;3.67;3.25;;;17.90;99.90;;;;;;5035052;28;20184;-70
2022/06/07 02:33:33;;;;;;;4.32;2.95;;;17.90;99.90;;;;;;5035659;28;20168;-70
2022/06/07 02:35:59;;;;;;;3.08;2.78;;;17.90;99.90;;;;;;5036665;28;20244;-71
2022/06/07 02:38:24;;;;;;;5.20;2.90;;;17.90;99.90;;;;;;5036480;28;20161;-71
2022/06/07 02:40:52;;;;;;;3.97;3.20;;;17.90;99.90;;;;;;5036274;28;20184;-72
2022/06/07 02:43:19;;;;;;;3.72;3.10;;;17.90;99.90;;;;;;5036463;28;20208;-71
2022/06/07 02:45:44;;;;;;;4.20;3.20;;;17.80;99.90;;;;;;5045043;28;20187;-70
2022/06/07 02:48:10;;;;;;;4.45;3.03;;;17.90;99.90;;;;;;5051471;28;20165;-71
2022/06/07 02:50:36;;;;;;;3.17;2.92;;;17.70;99.90;;;;;;5050325;28;20224;-71
2022/06/07 02:53:03;;;;;;;6.47;3.10;;;17.90;99.90;;;;;;5047536;28;20667;-71
2022/06/07 02:55:28;;;;;;;10.05;3.03;;;17.90;99.90;;;;;;5046502;28;20161;-73
2022/06/07 02:57:54;;;;;;;3.65;2.70;;;18.00;99.90;;;;;;5044886;28;20589;-74
2022/06/07 03:00:19;;;;;;;5.13;2.88;;;18.10;99.90;;;;;;5045613;28;20189;-71
2022/06/07 03:02:45;;;;;;;4.60;2.67;;;18.10;99.90;;;;;;5046442;28;20227;-72
2022/06/07 03:05:11;;;;;;;10.27;3.35;;;18.10;99.90;;;;;;5046145;28;20165;-70
2022/06/07 03:07:41;;;;;;;3.35;3.03;;;18.00;99.90;;;;;;5050123;28;20180;-73
2022/06/07 03:10:08;;;;;;;2.60;2.40;;;18.10;99.90;;;;;;5050097;28;20204;-72
2022/06/07 03:12:35;;;;;;;3.65;3.35;;;18.10;99.90;;;;;;5048874;28;20176;-72
2022/06/07 03:15:00;;;;;;;4.07;3.00;;;18.00;99.90;;;;;;5047876;28;20169;-71
2022/06/07 03:17:26;;;;;;;3.58;3.10;;;18.00;99.90;;;;;;5049003;28;20557;-71
2022/06/07 03:19:52;;;;;;;4.85;3.10;;;18.10;99.90;;;;;;5050287;28;20173;-71
2022/06/07 03:22:18;;;;;;;4.70;3.05;;;18.20;99.90;;;;;;5048556;28;20168;-71
2022/06/07 03:24:44;;;;;;;4.68;2.97;;;18.20;99.90;;;;;;5048554;28;20172;-71
2022/06/07 03:27:11;;;;;;;4.25;3.13;;;18.00;99.90;;;;;;5052642;28;20512;-71
2022/06/07 03:29:37;;;;;;;3.22;2.88;;;17.90;99.90;;;;;;5049598;28;20667;-71
2022/06/07 03:32:04;;;;;;;3.42;2.88;;;18.00;99.90;;;;;;5049115;28;20209;-72
2022/06/07 03:34:30;;;;;;;6.97;2.72;;;18.00;99.90;;;;;;5044053;28;20161;-71
2022/06/07 03:36:55;;;;;;;4.80;3.10;;;17.90;99.90;;;;;;5035951;28;20545;-71
2022/06/07 03:39:21;;;;;;;3.50;3.20;;;18.10;99.90;;;;;;5033770;28;20164;-71
2022/06/07 03:41:47;;;;;;;5.57;3.65;;;18.20;99.90;;;;;;5032448;28;20499;-71
2022/06/07 03:44:13;;;;;;;4.15;2.95;;;18.10;99.90;;;;;;5033788;28;20242;-70
2022/06/07 03:46:42;;;;;;;3.15;2.88;;;18.10;99.90;;;;;;5033612;28;20527;-71
2022/06/07 03:49:08;;;;;;;6.05;3.35;;;18.20;99.90;;;;;;5033775;28;20350;-70
2022/06/07 03:51:34;;;;;;;5.55;3.08;;;18.20;99.90;;;;;;5033316;28;20573;-71
2022/06/07 03:54:00;;;;;;;5.28;2.92;;;18.00;99.90;;;;;;5033294;28;20161;-70
2022/06/07 03:56:27;;;;;;;3.40;2.80;;;18.10;99.90;;;;;;5033426;28;20283;-71
2022/06/07 03:58:53;;;;;;;4.68;2.92;;;18.20;99.90;;;;;;5033326;28;20169;-71
2022/06/07 04:01:21;;;;;;;5.35;3.38;;;18.10;99.90;;;;;;5031978;28;20679;-71
2022/06/07 04:03:49;;;;;;;3.60;3.13;;;18.10;99.90;;;;;;5033366;28;20235;-71
2022/06/07 04:06:23;;;;;;;3.75;2.90;;;18.00;99.90;;;;;;5033747;28;20173;-71
2022/06/07 04:08:49;;;;;;;4.50;3.10;;;18.00;99.90;;;;;;5033254;28;20161;-71
2022/06/07 04:11:18;;;;;;;4.25;3.40;;;18.00;99.90;;;;;;5032718;28;20584;-70
2022/06/07 04:13:44;;;;;;;3.95;3.25;;;18.00;99.90;;;;;;5032942;28;20503;-70
2022/06/07 04:16:13;;;;;;;5.22;3.25;;;18.10;99.90;;;;;;5031615;28;20192;-70
2022/06/07 04:18:39;;;;;;;5.95;3.67;;;18.00;99.90;;;;;;5031815;28;20180;-70
2022/06/07 04:21:05;;;;;;;3.97;3.03;;;17.90;99.90;;;;;;5033154;28;20161;-71
2022/06/07 04:23:32;;;;;;;3.30;2.97;;;17.90;99.90;;;;;;5032740;28;20574;-71
2022/06/07 04:26:08;;;;;;;4.32;3.47;;;18.00;99.90;;;;;;5033206;28;20165;-70
2022/06/07 04:28:34;;;;;;;4.95;3.50;;;18.10;99.90;;;;;;5032858;28;20161;-71
2022/06/07 04:30:59;;;;;;;3.78;3.15;;;18.10;99.90;;;;;;5032502;28;20246;-70
2022/06/07 04:33:25;;;;;;;4.70;3.72;;;18.10;99.90;;;;;;5032466;28;20165;-71
2022/06/07 04:35:51;;;;;;;4.05;3.38;;;18.20;99.90;;;;;;5034676;28;20235;-71
2022/06/07 04:38:16;;;;;;;3.20;2.88;;;18.20;99.90;;;;;;5036558;28;20304;-71
2022/06/07 04:40:43;;;;;;;3.95;2.92;;;18.40;99.90;;;;;;5036559;28;20168;-71
2022/06/07 04:43:10;;;;;;;3.78;2.83;;;18.40;99.90;;;;;;5037404;28;20157;-72
2022/06/07 04:45:37;;;;;;;3.35;2.95;;;18.40;99.90;;;;;;5038576;28;20169;-71
2022/06/07 04:48:07;;;;;;;3.42;2.90;;;18.50;99.90;;;;;;5040671;28;20161;-71
2022/06/07 04:50:33;;;;;;;4.30;3.42;;;18.40;99.90;;;;;;5044296;28;20213;-72
2022/06/07 04:52:59;;;;;;;3.80;3.40;;;18.50;99.90;;;;;;5047764;28;20165;-73
2022/06/07 04:55:25;;;;;;;3.60;3.22;;;18.30;99.90;;;;;;5048721;28;20149;-71
2022/06/07 04:57:50;;;;;;;4.70;3.08;;;18.40;99.90;;;;;;5046941;28;20169;-72
2022/06/07 05:00:18;;;;;;;4.65;2.90;;;18.20;99.90;;;;;;5044033;28;20219;-73
2022/06/07 05:02:45;;;;;;;4.95;3.05;;;18.30;99.90;;;;;;5035900;28;20230;-71
2022/06/07 05:05:13;;;;;;;3.55;3.00;;;18.30;99.90;;;;;;5035921;28;20525;-71
2022/06/07 05:07:39;;;;;;;4.22;3.47;;;18.10;99.90;;;;;;5036281;28;20507;-71
2022/06/07 05:10:11;;;;;;;5.72;3.13;;;18.40;99.90;;;;;;5035476;28;20196;-70
2022/06/07 05:12:38;;;;;;;3.53;3.08;;;18.40;99.90;;;;;;5035054;28;20157;-71
2022/06/07 05:15:05;;;;;;;4.80;3.42;;;18.20;99.90;;;;;;5035789;28;20176;-71
2022/06/07 05:17:31;;;;;;;3.50;2.90;;;18.40;99.90;;;;;;5036476;28;20235;-71
2022/06/07 05:19:58;;;;;;;6.38;3.40;;;18.40;99.90;;;;;;5035804;28;20173;-71
2022/06/07 05:22:24;;;;;;;2.97;2.67;;;18.50;99.90;;;;;;5036490;28;20175;-72
2022/06/07 05:24:50;;;;;;;3.65;3.13;;;18.60;99.90;;;;;;5035559;28;20597;-70
2022/06/07 05:27:20;;;;;;;4.15;2.58;;;18.70;99.90;;;;;;5035884;28;20203;-71
2022/06/07 05:29:47;;;;;;;4.47;2.80;;;18.80;99.90;;;;;;5035729;28;20207;-71
2022/06/07 05:32:12;;;;;;;8.75;3.22;;;19.00;99.90;;;;;;5035525;28;20161;-71
2022/06/07 05:34:38;;;;;;;6.80;3.00;;;18.80;99.90;;;;;;5036127;28;20175;-71
2022/06/07 05:37:04;;;;;;;3.50;2.90;;;18.90;99.90;;;;;;5035481;28;20242;-71
2022/06/07 05:39:31;;;;;;;3.40;3.05;;;18.80;99.90;;;;;;5035608;28;20161;-71
2022/06/07 05:41:57;;;;;;;11.68;3.60;;;18.90;99.90;;;;;;5018206;28;20176;-70
2022/06/07 05:44:24;;;;;;;3.50;2.70;;;19.10;99.90;;;;;;5036170;28;20248;-72
2022/06/07 05:46:52;;;;;;;3.55;3.10;;;19.10;99.90;;;;;;5035787;28;20464;-71
2022/06/07 05:49:17;;;;;;;5.45;2.97;;;19.20;99.90;;;;;;5036971;28;20199;-70
2022/06/07 05:51:43;;;;;;;8.20;2.88;;;19.30;99.90;;;;;;5041305;28;20180;-72
2022/06/07 05:54:10;;;;;;;7.90;3.50;;;19.30;99.90;;;;;;5047514;28;20196;-71
2022/06/07 05:56:35;;;;;;;6.97;2.65;;;19.30;99.90;;;;;;5048316;28;20201;-71
2022/06/07 05:59:01;;;;;;;3.42;3.08;;;19.20;99.90;;;;;;5049686;28;20160;-71
2022/06/07 06:01:27;;;;;;;3.38;2.88;;;19.20;99.90;;;;;;5036167;28;20260;-71
2022/06/07 06:03:54;;;;;;;2.95;2.65;;;19.10;99.90;;;;;;5035803;28;20319;-71
2022/06/07 06:06:20;;;;;;;4.82;3.15;;;19.20;99.90;;;;;;5035010;28;20158;-70
2022/06/07 06:11:32;;;;;;;5.82;3.20;;;19.20;99.90;;;;;;5035641;28;20226;-71
2022/06/07 06:13:57;;;;;;;3.92;3.22;;;19.30;99.90;;;;;;5035301;28;20165;-71
2022/06/07 06:16:24;;;;;;;8.73;3.58;;;19.40;99.90;;;;;;5035140;28;20615;-72
2022/06/07 06:18:52;;;;;;;3.72;3.05;;;19.50;99.90;;;;;;5034702;28;20276;-69
2022/06/07 06:21:21;;;;;;;3.47;3.17;;;19.40;99.90;;;;;;5033494;28;20188;-70
2022/06/07 06:23:46;;;;;;;3.05;2.50;;;19.40;99.90;;;;;;5035029;28;20157;-71
2022/06/07 06:26:14;;;;;;;7.85;3.10;;;19.40;99.90;;;;;;5035188;28;20161;-71
2022/06/07 06:28:41;;;;;;;3.90;3.10;;;19.40;99.90;;;;;;5034435;28;20521;-73
2022/06/07 06:31:09;;;;;;;7.78;3.00;;;19.40;99.90;;;;;;5034368;28;20641;-70
2022/06/07 06:33:46;;;;;;;3.08;2.65;;;19.40;99.90;;;;;;5034849;28;20574;-71
2022/06/07 06:36:15;;;;;;;5.50;3.05;;;19.40;99.90;;;;;;5034631;28;20165;-72
2022/06/07 06:38:43;;;;;;;5.00;2.80;;;19.40;99.90;;;;;;5035110;28;20501;-71
2022/06/07 06:41:22;;;;;;;4.38;2.85;;;19.40;99.90;;;;;;5034404;28;20485;-70
2022/06/07 06:43:49;;;;;;;3.83;2.25;;;19.40;99.90;;;;;;5033355;28;20188;-70
2022/06/07 06:46:19;;;;;;;2.60;2.33;;;19.30;99.90;;;;;;5034340;28;20175;-71
2022/06/07 06:48:45;;;;;;;2.38;2.17;;;19.30;99.90;;;;;;5034616;28;20251;-71
2022/06/07 06:51:16;;;;;;;3.22;2.35;;;19.30;99.90;;;;;;5034680;28;20292;-70
2022/06/07 06:53:42;;;;;;;3.03;2.50;;;19.30;99.90;;;;;;5034125;28;20160;-71
2022/06/07 06:56:11;;;;;;;3.03;2.28;;;19.30;99.90;;;;;;5033984;28;20496;-70
2022/06/07 06:58:36;;;;;;;5.00;2.30;;;19.20;99.90;;;;;;5034356;28;20157;-72
2022/06/07 07:01:07;;;;;;;3.80;2.40;;;19.30;99.90;;;;;;5035355;28;20560;-71
2022/06/07 07:03:34;;;;;;;3.45;2.40;;;19.30;99.90;;;;;;5035704;28;20269;-70
2022/06/07 07:06:02;;;;;;;3.03;2.30;;;19.30;99.90;;;;;;5039879;28;20252;-72
2022/06/07 07:08:28;;;;;;;2.92;2.55;;;19.40;99.90;;;;;;5046079;28;20175;-71
2022/06/07 07:11:05;;;;;;;7.75;2.42;;;19.40;99.90;;;;;;5046655;28;20189;-71
2022/06/07 07:13:31;;;;;;;4.82;2.50;;;19.40;99.90;;;;;;5046582;28;20267;-70
2022/06/07 07:15:57;;;;;;;2.80;2.50;;;19.40;99.90;;;;;;5045827;28;20176;-70
2022/06/07 07:18:24;;;;;;;3.70;2.72;;;19.50;99.90;;;;;;5034752;28;20153;-70
2022/06/07 07:20:49;;;;;;;3.60;2.30;;;19.60;99.90;;;;;;5034125;28;20161;-71
2022/06/07 07:23:16;;;;;;;2.55;2.35;;;19.60;99.90;;;;;;5032167;28;20569;-71
2022/06/07 07:25:41;;;;;;;3.45;2.30;;;19.60;99.90;;;;;;5033754;28;20156;-70
2022/06/07 07:28:07;;;;;;;2.80;2.45;;;19.80;99.90;;;;;;5033795;28;20238;-70
2022/06/07 07:30:34;;;;;;;5.65;3.42;;;19.90;99.90;;;;;;5033566;28;20197;-71
2022/06/07 07:33:00;;;;;;;3.22;2.50;;;20.00;99.90;;;;;;5032678;28;20196;-71
2022/06/07 07:35:26;;;;;;;3.08;2.10;;;20.20;99.90;;;;;;5034025;28;20175;-74
2022/06/07 07:37:52;;;;;;;2.55;1.95;;;20.30;99.90;;;;;;5033951;28;20165;-69
2022/06/07 07:40:17;;;;;;;3.88;2.72;;;20.40;99.90;;;;;;5033665;28;20176;-70
2022/06/07 07:42:43;;;;;;;10.85;2.40;;;20.30;99.90;;;;;;5034349;28;20172;-72
2022/06/07 07:45:10;;;;;;;5.22;2.20;;;20.30;99.90;;;;;;5033297;28;20247;-70
2022/06/07 07:47:36;;;;;;;2.38;1.90;;;20.50;99.90;;;;;;5034119;28;20579;-70
2022/06/07 07:50:02;;;;;;;1.92;1.73;;;20.40;99.90;;;;;;5033840;28;20285;-70
2022/06/07 07:52:28;;;;;;;4.45;1.83;;;20.50;99.90;;;;;;5034134;28;20632;-71
2022/06/07 07:54:54;;;;;;;3.90;1.58;;;20.40;99.90;;;;;;5033409;28;20153;-70
2022/06/07 07:57:19;;;;;;;2.05;1.85;;;20.50;99.90;;;;;;5033546;28;20166;-70
2022/06/07 07:59:45;;;;;;;4.70;1.70;;;20.70;99.90;;;;;;5032966;28;20603;-70
2022/06/07 08:02:21;;;;;;;2.22;1.75;;;20.80;99.90;;;;;;5034020;28;20180;-72
2022/06/07 08:04:47;;;;;;;2.20;1.98;;;20.80;99.90;;;;;;5033301;28;20168;-69
2022/06/07 08:07:13;;;;;;;3.15;1.85;;;20.80;99.90;;;;;;5032674;28;20620;-70
2022/06/07 08:09:38;;;;;;;2.42;2.13;;;20.90;99.90;;;;;;5035385;28;20299;-70
2022/06/07 08:12:06;;;;;;;3.35;2.45;;;20.80;99.90;;;;;;5037768;28;20248;-70
2022/06/07 08:14:33;;;;;;;6.32;2.40;;;20.70;99.90;;;;;;5036775;28;20223;-71
2022/06/07 08:17:00;;;;;;;2.75;2.10;;;20.60;99.90;;;;;;5037294;28;20546;-73
2022/06/07 08:19:26;;;;;;;3.10;2.40;;;20.60;99.90;;;;;;5036893;28;20233;-69
2022/06/07 08:21:52;;;;;;;2.13;1.92;;;20.50;99.90;;;;;;5037683;28;20191;-71
2022/06/07 08:24:18;;;;;;;4.43;2.50;;;20.70;99.90;;;;;;5035708;28;20177;-69
2022/06/07 08:26:48;;;;;;;3.50;2.50;;;20.90;99.90;;;;;;5037314;28;20173;-72
2022/06/07 08:29:14;;;;;;;3.05;2.75;;;20.90;99.90;;;;;;5035832;28;20574;-70
2022/06/07 08:31:39;;;;;;;3.35;2.83;;;21.20;99.90;;;;;;5037024;28;20169;-71
2022/06/07 08:39:35;;;;;;;4.25;2.78;;;21.20;99.90;;;;;;5037255;28;20206;-69
2022/06/07 08:42:13;;;;;;;4.18;3.42;;;21.30;99.90;;;;;;5037614;28;20161;-69
2022/06/07 08:44:52;;;;;;;7.10;2.83;;;21.10;99.90;;;;;;5040501;28;20193;-71
2022/06/07 08:47:44;;;;;;;4.45;2.88;;;21.00;99.90;;;;;;5038724;28;20167;-70
2022/06/07 08:50:29;;;;;;;4.72;3.13;;;21.20;99.90;;;;;;5037011;28;20197;-70
2022/06/07 08:53:11;;;;;;;3.35;2.53;;;21.50;99.90;;;;;;5037860;28;20176;-70
2022/06/07 08:55:48;;;;;;;6.07;3.05;;;21.80;99.90;;;;;;5038004;28;20165;-69
2022/06/07 08:58:27;;;;;;;2.97;2.67;;;21.80;99.90;;;;;;5038032;28;20165;-70
2022/06/07 09:00:59;;;;;;;2.92;2.53;;;21.60;99.90;;;;;;5038458;28;20185;-70
2022/06/07 09:03:38;;;;;;;5.00;3.00;;;21.60;99.90;;;;;;5039862;28;20236;-69
2022/06/07 09:06:06;;;;;;;2.92;2.72;;;21.40;99.90;;;;;;5038016;28;20172;-70
2022/06/07 09:08:42;;;;;;;4.78;3.15;;;21.20;99.90;;;;;;5037948;28;20181;-70
2022/06/07 09:14:04;;;;;;;6.30;2.58;;;21.40;99.90;;;;;;5035799;28;20172;-69
2022/06/07 09:16:36;;;;;;;2.55;2.35;;;21.50;99.90;;;;;;5036089;28;20170;-69
2022/06/07 09:19:12;;;;;;;3.88;2.60;;;21.40;99.90;;;;;;5036134;28;20173;-70
2022/06/07 09:21:41;;;;;;;3.40;2.42;;;21.30;99.90;;;;;;5035488;28;20243;-69
2022/06/07 09:24:31;;;;;;;3.15;2.85;;;21.30;99.90;;;;;;5036231;28;20227;-69
2022/06/07 09:27:16;;;;;;;9.88;2.85;;;21.00;99.90;;;;;;5036116;28;20620;-69
2022/06/07 09:29:49;;;;;;;3.30;2.97;;;21.20;99.90;;;;;;5035745;28;20637;-70
2022/06/07 09:32:18;;;;;;;3.08;2.45;;;21.20;99.90;;;;;;5034844;28;20181;-71
2022/06/07 09:34:54;;;;;;;4.10;2.75;;;21.30;99.90;;;;;;5036415;28;20176;-71
2022/06/07 09:37:27;;;;;;;6.13;2.95;;;21.20;99.90;;;;;;5035543;28;20281;-70
2022/06/07 09:40:00;;;;;;;2.30;2.10;;;21.20;99.90;;;;;;5035632;28;20616;-70
2022/06/07 09:42:29;;;;;;;4.47;2.17;;;21.10;99.90;;;;;;5035326;28;20341;-69
2022/06/07 09:45:17;;;;;;;2.50;2.17;;;21.10;99.90;;;;;;5033590;28;20172;-69
2022/06/07 09:47:43;;;;;;;3.65;2.50;;;21.10;99.90;;;;;;5034788;28;20633;-71
2022/06/07 09:50:20;;;;;;;2.53;2.33;;;21.10;99.90;;;;;;5035125;28;20201;-73
2022/06/07 09:53:06;;;;;;;6.07;2.30;;;21.20;99.90;;;;;;5035770;28;20677;-69
2022/06/07 09:56:04;;;;;;;4.35;2.13;;;21.10;99.90;;;;;;5035497;28;20594;-69
2022/06/07 09:58:41;;;;;;;2.00;1.80;;;21.10;99.90;;;;;;5035482;28;20176;-70
2022/06/07 10:01:19;;;;;;;2.75;2.03;;;21.10;99.90;;;;;;5033923;28;20198;-70
2022/06/07 10:04:12;;;;;;;4.22;2.00;;;21.10;99.90;;;;;;5034555;28;20232;-70
2022/06/07 10:06:46;;;;;;;4.20;1.90;;;21.10;99.90;;;;;;5034983;28;20204;-69
2022/06/07 10:09:24;;;;;;;2.30;1.88;;;21.10;99.90;;;;;;5035310;28;20169;-69
2022/06/07 10:12:01;;;;;;;5.22;2.20;;;21.10;99.90;;;;;;5034756;28;20237;-71
2022/06/07 10:14:42;;;;;;;3.90;2.00;;;21.10;99.90;;;;;;5035740;28;20168;-70
2022/06/07 10:17:49;;;;;;;4.00;1.98;;;21.20;99.90;;;;;;5034925;28;20261;-71
2022/06/07 10:20:22;;;;;;;2.15;1.70;;;21.20;99.90;;;;;;5034419;28;20202;-70
2022/06/07 10:23:23;;;;;;;2.65;1.77;;;21.20;99.90;;;;;;5034709;28;20170;-70
2022/06/07 10:26:20;;;;;;;4.85;1.90;;;21.30;99.90;;;;;;5034609;28;20202;-69
2022/06/07 10:29:12;;;;;;;2.10;1.50;;;21.20;99.90;;;;;;5034819;28;20223;-71
2022/06/07 10:31:51;;;;;;;3.45;1.67;;;21.30;99.90;;;;;;5035220;28;20180;-69
2022/06/07 10:34:34;;;;;;;1.90;1.70;;;21.30;99.90;;;;;;5033740;28;20157;-70
2022/06/07 10:37:34;;;;;;;1.83;1.67;;;21.10;99.90;;;;;;5034896;28;20168;-71
2022/06/07 10:40:24;;;;;;;1.95;1.75;;;21.10;99.90;;;;;;5034680;28;20169;-70
2022/06/07 10:43:18;;;;;;;4.35;1.63;;;21.00;99.90;;;;;;5033940;28;20614;-70
2022/06/07 10:45:45;;;;;;;1.70;1.60;;;21.00;99.90;;;;;;5033830;28;20606;-70
2022/06/07 10:48:21;;;;;;;2.17;1.67;;;21.00;99.90;;;;;;5034615;28;20153;-70
2022/06/07 10:51:01;;;;;;;1.98;1.45;;;21.00;99.90;;;;;;5034028;28;20208;-69
2022/06/07 10:53:44;;;;;;;2.95;1.80;;;21.10;99.90;;;;;;5034321;28;20260;-71
2022/06/07 10:56:29;;;;;;;3.08;1.55;;;21.20;99.90;;;;;;5035397;28;20173;-70
2022/06/07 10:58:55;;;;;;;4.75;2.38;;;21.20;99.90;;;;;;5040266;28;20157;-69
2022/06/07 11:01:42;;;;;;;4.18;3.17;;;21.30;99.90;;;;;;5044207;28;20189;-71
2022/06/07 11:10:12;;;;;;;2.70;2.03;;;21.10;99.90;;;;;;5022278;28;20234;-71
2022/06/07 11:12:52;;;;;;;3.53;1.60;;;21.10;99.90;;;;;;5034732;28;20157;-71
2022/06/07 11:15:21;;;;;;;1.60;1.42;;;21.20;99.90;;;;;;5033623;28;20582;-69
2022/06/07 11:17:48;;;;;;;2.63;1.50;;;21.40;99.90;;;;;;5034196;28;20527;-69
2022/06/07 11:20:29;;;;;;;2.55;1.60;;;21.50;99.90;;;;;;5033979;28;20248;-69
2022/06/07 11:22:56;;;;;;;3.47;2.33;;;21.50;99.90;;;;;;5034423;28;20165;-69
2022/06/07 11:25:34;;;;;;;2.53;2.00;;;21.60;99.90;;;;;;5033809;28;20164;-69
2022/06/07 11:28:11;;;;;;;3.13;1.60;;;21.60;99.90;;;;;;5033635;28;20576;-70
2022/06/07 11:30:37;;;;;;;2.33;1.80;;;21.60;99.90;;;;;;5032267;28;20258;-70
2022/06/07 11:33:25;;;;;;;3.05;1.40;;;21.60;99.90;;;;;;5033137;28;20153;-69
2022/06/07 11:36:04;;;;;;;1.73;1.50;;;21.60;99.90;;;;;;5033284;28;20246;-70
2022/06/07 11:38:32;;;;;;;2.17;1.40;;;21.50;99.90;;;;;;5033224;28;20195;-70
2022/06/07 11:41:38;;;;;;;2.35;1.83;;;21.30;99.90;;;;;;5033342;28;20570;-69
2022/06/07 11:44:36;;;;;;;1.80;1.67;;;21.30;99.90;;;;;;5034773;28;20583;-70
2022/06/07 11:47:24;;;;;;;2.55;1.52;;;21.50;99.90;;;;;;5038385;28;20165;-69
2022/06/07 11:49:52;;;;;;;2.00;1.70;;;21.60;99.90;;;;;;5038884;28;20307;-70
2022/06/07 11:52:33;;;;;;;7.72;1.90;;;21.70;99.90;;;;;;5038839;28;20161;-70
2022/06/07 11:55:15;;;;;;;2.05;1.70;;;21.90;99.90;;;;;;5042195;28;20157;-69
2022/06/07 11:58:00;;;;;;;5.38;1.83;;;21.90;99.90;;;;;;5048854;28;20177;-71
2022/06/07 12:00:29;;;;;;;2.60;2.40;;;22.10;99.90;;;;;;5051886;28;20549;-72
2022/06/07 12:02:58;;;;;;;2.00;1.80;;;22.10;99.90;;;;;;5051873;28;20236;-71
2022/06/07 12:05:36;;;;;;;5.63;2.35;;;22.10;99.90;;;;;;5046770;28;20173;-71
2022/06/07 12:08:27;;;;;;;2.05;1.60;;;22.30;99.90;;;;;;5037756;28;20165;-71
2022/06/07 12:11:20;;;;;;;4.80;1.38;;;22.20;99.90;;;;;;5037195;28;20200;-71
2022/06/07 12:14:06;;;;;;;2.10;1.67;;;22.10;99.90;;;;;;5034547;28;20196;-71
2022/06/07 12:16:39;;;;;;;2.45;1.48;;;22.10;99.90;;;;;;5037414;28;20167;-70
2022/06/07 12:19:22;;;;;;;2.17;1.40;;;22.20;99.90;;;;;;5037581;28;20230;-70
2022/06/07 12:22:01;;;;;;;1.75;1.45;;;22.20;99.90;;;;;;5037104;28;20168;-70
2022/06/07 12:24:28;;;;;;;2.33;1.60;;;22.20;99.90;;;;;;5038944;28;20169;-70
2022/06/07 12:26:54;;;;;;;3.00;1.80;;;22.10;99.90;;;;;;5038568;28;20215;-69
2022/06/07 12:29:29;;;;;;;1.65;1.50;;;22.30;99.90;;;;;;5038281;28;20224;-71
2022/06/07 12:32:06;;;;;;;3.03;2.03;;;22.40;99.90;;;;;;5037512;28;20176;-69
2022/06/07 12:34:36;;;;;;;3.03;1.20;;;22.30;99.90;;;;;;5039857;28;20325;-69
2022/06/07 12:37:03;;;;;;;2.08;1.70;;;22.30;99.90;;;;;;5041535;28;20157;-69
2022/06/07 12:39:31;;;;;;;3.70;1.85;;;22.30;99.90;;;;;;5040836;28;20161;-69
2022/06/07 12:42:07;;;;;;;3.50;1.60;;;22.40;99.90;;;;;;5036998;28;20164;-70
2022/06/07 12:44:37;;;;;;;2.75;1.70;;;22.50;99.90;;;;;;5037010;28;20169;-70
2022/06/07 12:47:05;;;;;;;1.60;1.50;;;22.50;99.90;;;;;;5037160;28;20234;-69
2022/06/07 12:49:43;;;;;;;3.33;1.45;;;22.40;99.40;;;;;;5036912;28;20200;-70
2022/06/07 12:52:15;;;;;;;2.08;1.40;;;22.30;99.90;;;;;;5037105;28;20161;-69
2022/06/07 12:54:51;;;;;;;8.75;7.55;;;22.40;99.10;;;;;;5037197;28;20200;-69
2022/06/07 12:57:27;;;;;;;20.52;14.25;;;22.50;98.70;;;;;;5035522;28;20229;-70
2022/06/07 13:00:19;;;;;;;3.28;1.60;;;22.70;98.30;;;;;;5036181;28;20168;-69
2022/06/07 13:02:53;;;;;;;5.57;2.03;;;22.50;97.60;;;;;;5036472;28;20278;-70
2022/06/07 13:05:33;;;;;;;1.92;1.33;;;22.60;98.30;;;;;;5035776;28;20609;-69
2022/06/07 13:08:00;;;;;;;1.50;1.40;;;22.60;98.40;;;;;;5035959;28;20514;-70
2022/06/07 13:10:35;;;;;;;2.60;1.60;;;22.50;99.30;;;;;;5035850;28;20201;-69
2022/06/07 13:13:05;;;;;;;1.40;1.30;;;22.50;99.90;;;;;;5035141;28;20171;-71
2022/06/07 13:15:49;;;;;;;1.50;1.40;;;22.40;99.90;;;;;;5036032;28;20165;-70
2022/06/07 13:18:15;;;;;;;2.25;1.50;;;22.30;99.50;;;;;;5035409;28;20528;-69
2022/06/07 13:20:47;;;;;;;2.20;1.50;;;22.20;99.30;;;;;;5035990;28;20172;-69
2022/06/07 13:23:28;;;;;;;4.43;1.42;;;22.10;98.50;;;;;;5036558;28;20160;-70
2022/06/07 13:26:15;;;;;;;1.70;1.60;;;22.00;99.30;;;;;;5035482;28;20157;-70
2022/06/07 13:28:41;;;;;;;1.33;1.23;;;21.90;99.90;;;;;;5035789;28;20168;-72